Jock — WDF2423 — position and weather

sailwx.info

Track history (hours):
 
Tides and Currents Weather Stations Pressure Air Temp Water Temp Dewpoint Dewpoint Depression Visibility Wind Speed Wind Dir Waves Ship Positions

Jock

Owner: Enterprise Marine Services, LLC, San Antonio, TX. More information available from US FCC via Universal Licensing System and Coast Guard Vessel Documentation Center.

Last reported at 2018-Mar-21 08:17 UTC. Time now 2018-Apr-22 21:46 UTC.
Position N 29°33' W 090°28'.
Warning: this ship's position is 32 days out of date.

Length 28 m; draft 3 m.

Type: Tug. MMSI: 367003460.

Date/timePositionNaut miles runAvg speedWind from/ knotsBaromVisibWave heightAir tempDewpointWater temp
2018-Mar-21 08:17N 29°33' W 090°28'2 6.1
2018-Mar-21 08:00N 29°34' W 090°29'3 5.7
2018-Mar-21 07:28N 29°34' W 090°33'3 5.6
2018-Mar-21 07:00N 29°35' W 090°36'2 3.4
2018-Mar-21 06:30N 29°35' W 090°38'3 5.5
2018-Mar-21 06:00N 29°36' W 090°40'2 3.8
2018-Mar-21 05:31N 29°36' W 090°43'2 3.9
2018-Mar-21 05:00N 29°34' W 090°43'2 4.4
2018-Mar-21 04:30N 29°33' W 090°45'3 5.1
2018-Mar-21 04:00N 29°32' W 090°48'120 4.5
2018-Mar-20 01:28N 29°56' W 093°04'3 5.6
2018-Mar-20 00:58N 29°56' W 093°07'2 5.3
2018-Mar-20 00:30N 29°57' W 093°10'3 6.0
2018-Mar-20 00:01N 29°59' W 093°12'3 5.7
2018-Mar-19 23:30N 30°01' W 093°14'3 5.1
2018-Mar-19 23:01N 30°03' W 093°16'3 5.2
2018-Mar-19 22:30N 30°05' W 093°18'1 2.8
2018-Mar-19 22:01N 30°06' W 093°19'3 5.5
2018-Mar-19 21:31N 30°04' W 093°21'3 5.5
2018-Mar-19 21:00N 30°04' W 093°24'4 7.1
2018-Mar-19 20:30N 30°04' W 093°28'10 7.1
2018-Mar-19 19:04N 30°04' W 093°40'1 7.3
2018-Mar-19 18:59N 30°03' W 093°41'3 6.3
2018-Mar-19 18:29N 30°02' W 093°44'3 6.2
2018-Mar-19 18:00N 29°60' W 093°46'3 6.9
2018-Mar-19 17:30N 29°59' W 093°50'3 6.5
2018-Mar-19 17:00N 29°56' W 093°52'4 7.1
2018-Mar-19 16:30N 29°53' W 093°55'3 7.0
2018-Mar-19 16:01N 29°50' W 093°57'0 0.9
2018-Mar-19 15:31N 29°50' W 093°58'0 0.0
2018-Mar-19 15:00N 29°50' W 093°58'0 0.0
2018-Mar-19 14:30N 29°50' W 093°58'0 0.0
2018-Mar-19 14:00N 29°50' W 093°58'0 0.0
2018-Mar-19 13:30N 29°50' W 093°58'0 0.0
2018-Mar-19 13:00N 29°50' W 093°58'0 0.0
2018-Mar-19 12:30N 29°50' W 093°58'0 0.0
2018-Mar-19 12:01N 29°50' W 093°58'0 0.0
2018-Mar-19 11:30N 29°50' W 093°58'0 0.0
2018-Mar-19 11:00N 29°50' W 093°58'0 0.0
2018-Mar-19 10:31N 29°50' W 093°58'0 0.0
2018-Mar-19 10:01N 29°50' W 093°58'0 0.0
2018-Mar-19 09:30N 29°50' W 093°58'0 0.0
2018-Mar-19 09:00N 29°50' W 093°58'0 0.0
2018-Mar-19 08:31N 29°50' W 093°58'0 0.0
2018-Mar-19 08:00N 29°50' W 093°58'0 0.0
2018-Mar-19 07:30N 29°50' W 093°58'0 0.0
2018-Mar-19 07:00N 29°50' W 093°58'0 0.0
2018-Mar-19 06:30N 29°50' W 093°58'0 0.0
2018-Mar-19 06:00N 29°50' W 093°58'0 0.0
2018-Mar-19 05:31N 29°50' W 093°58'0 0.0
2018-Mar-19 05:00N 29°50' W 093°58'0 0.0
2018-Mar-19 04:31N 29°50' W 093°58'0 0.0
2018-Mar-19 04:00N 29°50' W 093°58'0 0.0
2018-Mar-19 03:30N 29°50' W 093°58'0 0.0
2018-Mar-19 03:00N 29°50' W 093°58'0 0.0
2018-Mar-19 02:31N 29°50' W 093°58'0 0.0
2018-Mar-19 02:00N 29°50' W 093°58'0 0.0
2018-Mar-19 01:30N 29°50' W 093°58'0 0.2
2018-Mar-19 00:58N 29°50' W 093°58'0 0.0
2018-Mar-19 00:27N 29°50' W 093°58'0 0.0
2018-Mar-19 00:01N 29°50' W 093°58'0 0.0
2018-Mar-18 23:30N 29°50' W 093°58'0 0.0
2018-Mar-18 23:00N 29°50' W 093°58'0 0.0
2018-Mar-18 22:31N 29°50' W 093°58'0 0.0
2018-Mar-18 22:00N 29°50' W 093°58'0 0.0
2018-Mar-18 21:31N 29°50' W 093°58'0 0.0
2018-Mar-18 21:01N 29°50' W 093°58'0 0.0
2018-Mar-18 20:31N 29°50' W 093°58'0 0.0
2018-Mar-18 20:00N 29°50' W 093°58'0 0.0
2018-Mar-18 19:31N 29°50' W 093°58'0 0.0
2018-Mar-18 19:00N 29°50' W 093°58'0 0.0
2018-Mar-18 18:28N 29°50' W 093°58'0 0.0
2018-Mar-18 17:59N 29°50' W 093°58'0 0.0
2018-Mar-18 17:30N 29°50' W 093°58'0 0.0
2018-Mar-18 17:01N 29°50' W 093°58'0 0.0
2018-Mar-18 16:30N 29°50' W 093°58'0 0.0
2018-Mar-18 15:59N 29°50' W 093°58'0 0.0
2018-Mar-18 15:30N 29°50' W 093°58'0 0.0
2018-Mar-18 15:00N 29°50' W 093°58'0 0.0
2018-Mar-18 14:30N 29°50' W 093°58'0 0.0
2018-Mar-18 14:00N 29°50' W 093°58'0 0.0
2018-Mar-18 13:30N 29°50' W 093°58'0 0.0
2018-Mar-18 13:00N 29°50' W 093°58'0 0.0
2018-Mar-18 12:31N 29°50' W 093°58'0 0.0
2018-Mar-18 12:00N 29°50' W 093°58'0 0.0
2018-Mar-18 11:30N 29°50' W 093°58'0 0.0
2018-Mar-18 10:59N 29°50' W 093°58'0 0.0
2018-Mar-18 10:30N 29°50' W 093°58'0 0.0
2018-Mar-18 10:00N 29°50' W 093°58'0 0.0
2018-Mar-18 09:31N 29°50' W 093°58'0 0.0
2018-Mar-18 09:01N 29°50' W 093°58'0 0.0
2018-Mar-18 08:30N 29°50' W 093°58'0 0.1
2018-Mar-18 08:01N 29°50' W 093°58'0 0.9
2018-Mar-18 07:30N 29°50' W 093°57'4 7.0
2018-Mar-18 07:00N 29°53' W 093°55'4 7.1
2018-Mar-18 06:30N 29°56' W 093°52'3 6.3
2018-Mar-18 06:00N 29°59' W 093°50'3 6.4
2018-Mar-18 05:30N 29°60' W 093°47'3 6.3
2018-Mar-18 05:01N 30°02' W 093°44'3 5.3
2018-Mar-18 04:29N 30°04' W 093°42'3 5.2
2018-Mar-18 04:00N 30°04' W 093°39'3 4.9
2018-Mar-18 03:27N 30°04' W 093°36'2 4.7
2018-Mar-18 03:00N 30°04' W 093°33'2 4.9
2018-Mar-18 02:31N 30°04' W 093°31'2 4.6
2018-Mar-18 02:01N 30°04' W 093°28'2 4.5
2018-Mar-18 01:30N 30°04' W 093°25'2 5.0
2018-Mar-18 01:01N 30°04' W 093°22'2 3.4
2018-Mar-18 00:30N 30°04' W 093°21'3 5.1
2018-Mar-18 00:01N 30°06' W 093°19'0 0.1
2018-Mar-17 23:30N 30°06' W 093°19'0 0.0
2018-Mar-17 23:00N 30°06' W 093°19'0 0.0
2018-Mar-17 22:31N 30°06' W 093°19'0 0.0
2018-Mar-17 22:01N 30°06' W 093°19'0 0.0
2018-Mar-17 21:31N 30°06' W 093°19'0 0.0
2018-Mar-17 21:00N 30°06' W 093°19'0 0.1
2018-Mar-17 20:31N 30°06' W 093°19'2 3.5
2018-Mar-17 20:00N 30°05' W 093°17'2 4.7
2018-Mar-17 19:31N 30°03' W 093°16'3 5.1
2018-Mar-17 19:01N 30°01' W 093°14'2 4.8
2018-Mar-17 18:30N 29°59' W 093°12'1 1.7
2018-Mar-17 18:01N 29°58' W 093°12'0 0.2
2018-Mar-17 17:31N 29°58' W 093°12'2 4.5
2018-Mar-17 17:00N 29°57' W 093°10'2 4.6
2018-Mar-17 16:30N 29°56' W 093°07'116 3.6
2018-Mar-16 08:04N 29°34' W 090°56'1 5.6
2018-Mar-16 07:51N 29°33' W 090°55'3 5.4
2018-Mar-16 07:20N 29°32' W 090°52'2 5.5
2018-Mar-16 07:00N 29°32' W 090°50'3 5.4
2018-Mar-16 06:30N 29°32' W 090°47'2 4.6
2018-Mar-16 06:01N 29°34' W 090°45'2 4.1
2018-Mar-16 05:31N 29°35' W 090°43'2 4.2
2018-Mar-16 05:01N 29°37' W 090°42'1 1.4
2018-Mar-16 04:31N 29°36' W 090°41'0 0.3
2018-Mar-16 04:00N 29°36' W 090°41'1 2.3
2018-Mar-16 03:30N 29°36' W 090°40'2 3.3
2018-Mar-16 03:00N 29°35' W 090°38'2 4.7
2018-Mar-16 02:30N 29°35' W 090°35'3 5.1
2018-Mar-16 02:00N 29°34' W 090°33'  
Track history (hours):
 
Tides and Currents Weather Stations Pressure Air Temp Water Temp Dewpoint Dewpoint Depression Visibility Wind Speed Wind Dir Waves Ship Positions

Jock

Owner: Enterprise Marine Services, LLC, San Antonio, TX. More information available from US FCC via Universal Licensing System and Coast Guard Vessel Documentation Center.

Last reported at 2018-Mar-21 08:17 UTC. Time now 2018-Apr-22 21:46 UTC.
Position N 29°33' W 090°28'.
Warning: this ship's position is 32 days out of date.

Length 28 m; draft 3 m.

Type: Tug. MMSI: 367003460.

Date/timePositionNaut miles runAvg speedWind from/ knotsBaromVisibWave heightAir tempDewpointWater temp
2018-Mar-21 08:17N 29°33' W 090°28'2 6.1
2018-Mar-21 08:00N 29°34' W 090°29'3 5.7
2018-Mar-21 07:28N 29°34' W 090°33'3 5.6
2018-Mar-21 07:00N 29°35' W 090°36'2 3.4
2018-Mar-21 06:30N 29°35' W 090°38'3 5.5
2018-Mar-21 06:00N 29°36' W 090°40'2 3.8
2018-Mar-21 05:31N 29°36' W 090°43'2 3.9
2018-Mar-21 05:00N 29°34' W 090°43'2 4.4
2018-Mar-21 04:30N 29°33' W 090°45'3 5.1
2018-Mar-21 04:00N 29°32' W 090°48'120 4.5
2018-Mar-20 01:28N 29°56' W 093°04'3 5.6
2018-Mar-20 00:58N 29°56' W 093°07'2 5.3
2018-Mar-20 00:30N 29°57' W 093°10'3 6.0
2018-Mar-20 00:01N 29°59' W 093°12'3 5.7
2018-Mar-19 23:30N 30°01' W 093°14'3 5.1
2018-Mar-19 23:01N 30°03' W 093°16'3 5.2
2018-Mar-19 22:30N 30°05' W 093°18'1 2.8
2018-Mar-19 22:01N 30°06' W 093°19'3 5.5
2018-Mar-19 21:31N 30°04' W 093°21'3 5.5
2018-Mar-19 21:00N 30°04' W 093°24'4 7.1
2018-Mar-19 20:30N 30°04' W 093°28'10 7.1
2018-Mar-19 19:04N 30°04' W 093°40'1 7.3
2018-Mar-19 18:59N 30°03' W 093°41'3 6.3
2018-Mar-19 18:29N 30°02' W 093°44'3 6.2
2018-Mar-19 18:00N 29°60' W 093°46'3 6.9
2018-Mar-19 17:30N 29°59' W 093°50'3 6.5
2018-Mar-19 17:00N 29°56' W 093°52'4 7.1
2018-Mar-19 16:30N 29°53' W 093°55'3 7.0
2018-Mar-19 16:01N 29°50' W 093°57'0 0.9
2018-Mar-19 15:31N 29°50' W 093°58'0 0.0
2018-Mar-19 15:00N 29°50' W 093°58'0 0.0
2018-Mar-19 14:30N 29°50' W 093°58'0 0.0
2018-Mar-19 14:00N 29°50' W 093°58'0 0.0
2018-Mar-19 13:30N 29°50' W 093°58'0 0.0
2018-Mar-19 13:00N 29°50' W 093°58'0 0.0
2018-Mar-19 12:30N 29°50' W 093°58'0 0.0
2018-Mar-19 12:01N 29°50' W 093°58'0 0.0
2018-Mar-19 11:30N 29°50' W 093°58'0 0.0
2018-Mar-19 11:00N 29°50' W 093°58'0 0.0
2018-Mar-19 10:31N 29°50' W 093°58'0 0.0
2018-Mar-19 10:01N 29°50' W 093°58'0 0.0
2018-Mar-19 09:30N 29°50' W 093°58'0 0.0
2018-Mar-19 09:00N 29°50' W 093°58'0 0.0
2018-Mar-19 08:31N 29°50' W 093°58'0 0.0
2018-Mar-19 08:00N 29°50' W 093°58'0 0.0
2018-Mar-19 07:30N 29°50' W 093°58'0 0.0
2018-Mar-19 07:00N 29°50' W 093°58'0 0.0
2018-Mar-19 06:30N 29°50' W 093°58'0 0.0
2018-Mar-19 06:00N 29°50' W 093°58'0 0.0
2018-Mar-19 05:31N 29°50' W 093°58'0 0.0
2018-Mar-19 05:00N 29°50' W 093°58'0 0.0
2018-Mar-19 04:31N 29°50' W 093°58'0 0.0
2018-Mar-19 04:00N 29°50' W 093°58'0 0.0
2018-Mar-19 03:30N 29°50' W 093°58'0 0.0
2018-Mar-19 03:00N 29°50' W 093°58'0 0.0
2018-Mar-19 02:31N 29°50' W 093°58'0 0.0
2018-Mar-19 02:00N 29°50' W 093°58'0 0.0
2018-Mar-19 01:30N 29°50' W 093°58'0 0.2
2018-Mar-19 00:58N 29°50' W 093°58'0 0.0
2018-Mar-19 00:27N 29°50' W 093°58'0 0.0
2018-Mar-19 00:01N 29°50' W 093°58'0 0.0
2018-Mar-18 23:30N 29°50' W 093°58'0 0.0
2018-Mar-18 23:00N 29°50' W 093°58'0 0.0
2018-Mar-18 22:31N 29°50' W 093°58'0 0.0
2018-Mar-18 22:00N 29°50' W 093°58'0 0.0
2018-Mar-18 21:31N 29°50' W 093°58'0 0.0
2018-Mar-18 21:01N 29°50' W 093°58'0 0.0
2018-Mar-18 20:31N 29°50' W 093°58'0 0.0
2018-Mar-18 20:00N 29°50' W 093°58'0 0.0
2018-Mar-18 19:31N 29°50' W 093°58'0 0.0
2018-Mar-18 19:00N 29°50' W 093°58'0 0.0
2018-Mar-18 18:28N 29°50' W 093°58'0 0.0
2018-Mar-18 17:59N 29°50' W 093°58'0 0.0
2018-Mar-18 17:30N 29°50' W 093°58'0 0.0
2018-Mar-18 17:01N 29°50' W 093°58'0 0.0
2018-Mar-18 16:30N 29°50' W 093°58'0 0.0
2018-Mar-18 15:59N 29°50' W 093°58'0 0.0
2018-Mar-18 15:30N 29°50' W 093°58'0 0.0
2018-Mar-18 15:00N 29°50' W 093°58'0 0.0
2018-Mar-18 14:30N 29°50' W 093°58'0 0.0
2018-Mar-18 14:00N 29°50' W 093°58'0 0.0
2018-Mar-18 13:30N 29°50' W 093°58'0 0.0
2018-Mar-18 13:00N 29°50' W 093°58'0 0.0
2018-Mar-18 12:31N 29°50' W 093°58'0 0.0
2018-Mar-18 12:00N 29°50' W 093°58'0 0.0
2018-Mar-18 11:30N 29°50' W 093°58'0 0.0
2018-Mar-18 10:59N 29°50' W 093°58'0 0.0
2018-Mar-18 10:30N 29°50' W 093°58'0 0.0
2018-Mar-18 10:00N 29°50' W 093°58'0 0.0
2018-Mar-18 09:31N 29°50' W 093°58'0 0.0
2018-Mar-18 09:01N 29°50' W 093°58'0 0.0
2018-Mar-18 08:30N 29°50' W 093°58'0 0.1
2018-Mar-18 08:01N 29°50' W 093°58'0 0.9
2018-Mar-18 07:30N 29°50' W 093°57'4 7.0
2018-Mar-18 07:00N 29°53' W 093°55'4 7.1
2018-Mar-18 06:30N 29°56' W 093°52'3 6.3
2018-Mar-18 06:00N 29°59' W 093°50'3 6.4
2018-Mar-18 05:30N 29°60' W 093°47'3 6.3
2018-Mar-18 05:01N 30°02' W 093°44'3 5.3
2018-Mar-18 04:29N 30°04' W 093°42'3 5.2
2018-Mar-18 04:00N 30°04' W 093°39'3 4.9
2018-Mar-18 03:27N 30°04' W 093°36'2 4.7
2018-Mar-18 03:00N 30°04' W 093°33'2 4.9
2018-Mar-18 02:31N 30°04' W 093°31'2 4.6
2018-Mar-18 02:01N 30°04' W 093°28'2 4.5
2018-Mar-18 01:30N 30°04' W 093°25'2 5.0
2018-Mar-18 01:01N 30°04' W 093°22'2 3.4
2018-Mar-18 00:30N 30°04' W 093°21'3 5.1
2018-Mar-18 00:01N 30°06' W 093°19'0 0.1
2018-Mar-17 23:30N 30°06' W 093°19'0 0.0
2018-Mar-17 23:00N 30°06' W 093°19'0 0.0
2018-Mar-17 22:31N 30°06' W 093°19'0 0.0
2018-Mar-17 22:01N 30°06' W 093°19'0 0.0
2018-Mar-17 21:31N 30°06' W 093°19'0 0.0
2018-Mar-17 21:00N 30°06' W 093°19'0 0.1
2018-Mar-17 20:31N 30°06' W 093°19'2 3.5
2018-Mar-17 20:00N 30°05' W 093°17'2 4.7
2018-Mar-17 19:31N 30°03' W 093°16'3 5.1
2018-Mar-17 19:01N 30°01' W 093°14'2 4.8
2018-Mar-17 18:30N 29°59' W 093°12'1 1.7
2018-Mar-17 18:01N 29°58' W 093°12'0 0.2
2018-Mar-17 17:31N 29°58' W 093°12'2 4.5
2018-Mar-17 17:00N 29°57' W 093°10'2 4.6
2018-Mar-17 16:30N 29°56' W 093°07'116 3.6
2018-Mar-16 08:04N 29°34' W 090°56'1 5.6
2018-Mar-16 07:51N 29°33' W 090°55'3 5.4
2018-Mar-16 07:20N 29°32' W 090°52'2 5.5
2018-Mar-16 07:00N 29°32' W 090°50'3 5.4
2018-Mar-16 06:30N 29°32' W 090°47'2 4.6
2018-Mar-16 06:01N 29°34' W 090°45'2 4.1
2018-Mar-16 05:31N 29°35' W 090°43'2 4.2
2018-Mar-16 05:01N 29°37' W 090°42'1 1.4
2018-Mar-16 04:31N 29°36' W 090°41'0 0.3
2018-Mar-16 04:00N 29°36' W 090°41'1 2.3
2018-Mar-16 03:30N 29°36' W 090°40'2 3.3
2018-Mar-16 03:00N 29°35' W 090°38'2 4.7
2018-Mar-16 02:30N 29°35' W 090°35'3 5.1
2018-Mar-16 02:00N 29°34' W 090°33'  

Dump ship's entire track history